createdAt,value
2019-01-03T00:00:37.545Z,2.03
2019-01-03T00:05:59.821Z,1.60
2019-01-03T00:11:12.178Z,1.60
2019-01-03T00:16:34.497Z,1.50
2019-01-03T00:22:09.934Z,1.80
2019-01-03T00:27:32.242Z,1.47
2019-01-03T00:33:14.057Z,3.20
2019-01-03T00:38:36.377Z,2.40
2019-01-03T00:43:58.861Z,2.10
2019-01-03T00:49:21.140Z,2.00
2019-01-03T00:54:43.474Z,1.50
2019-01-03T01:00:25.567Z,1.17
2019-01-03T01:11:06.395Z,1.40
2019-01-03T01:16:48.195Z,1.73
2019-01-03T01:22:10.522Z,2.07
2019-01-03T01:27:52.406Z,1.50
2019-01-03T01:38:46.967Z,1.47
2019-01-03T01:44:09.237Z,1.70
2019-01-03T01:49:46.004Z,1.70
2019-01-03T01:55:08.308Z,1.73
2019-01-03T02:00:50.089Z,2.50
2019-01-03T02:06:31.891Z,1.70
2019-01-03T02:11:54.173Z,2.00
2019-01-03T02:17:35.979Z,1.70
2019-01-03T02:23:17.801Z,2.00
2019-01-03T02:28:59.556Z,1.57
2019-01-03T02:34:41.360Z,1.60
2019-01-03T02:40:23.458Z,1.37
2019-01-03T02:46:05.250Z,1.10
2019-01-03T02:51:42.918Z,1.83
2019-01-03T02:57:24.690Z,2.33
2019-01-03T03:03:06.465Z,1.67
2019-01-03T03:08:48.293Z,1.93
2019-01-03T03:14:30.071Z,2.30
2019-01-03T03:19:52.348Z,1.63
2019-01-03T03:25:42.842Z,2.40
2019-01-03T03:31:20.610Z,2.10
2019-01-03T03:37:02.377Z,2.27
2019-01-03T03:42:44.155Z,2.37
2019-01-03T03:47:55.339Z,2.90
2019-01-03T03:53:37.366Z,2.27
2019-01-03T03:58:59.647Z,2.10
2019-01-03T04:04:41.441Z,2.33
2019-01-03T04:16:12.980Z,2.40
2019-01-03T04:27:21.887Z,2.10
2019-01-03T04:38:23.788Z,2.40
2019-01-03T04:44:05.713Z,2.03
2019-01-03T04:49:41.165Z,2.03
2019-01-03T04:55:22.978Z,1.83
2019-01-03T05:01:04.750Z,2.43
2019-01-03T05:06:46.534Z,1.97
2019-01-03T05:12:28.320Z,1.67
2019-01-03T05:18:05.354Z,2.07
2019-01-03T05:23:47.712Z,1.60
2019-01-03T05:29:29.534Z,1.67
2019-01-03T05:35:11.326Z,1.90
2019-01-03T05:40:53.118Z,1.50
2019-01-03T05:46:15.387Z,1.67
2019-01-03T05:51:49.899Z,2.07
2019-01-03T05:57:12.192Z,1.47
2019-01-03T06:02:54.024Z,2.30
2019-01-03T06:08:35.889Z,1.40
2019-01-03T06:14:17.712Z,1.67
2019-01-03T06:19:59.975Z,1.50
2019-01-03T06:25:41.867Z,2.30
2019-01-03T06:31:23.664Z,2.17
2019-01-03T06:36:45.936Z,1.83
2019-01-03T06:42:27.719Z,2.20
2019-01-03T06:47:49.983Z,2.00
2019-01-03T06:53:25.085Z,2.30
2019-01-03T06:59:06.888Z,2.60
2019-01-03T07:04:48.638Z,2.23
2019-01-03T07:10:30.462Z,2.40
2019-01-03T07:16:12.250Z,2.63
2019-01-03T07:21:54.020Z,2.37
2019-01-03T07:27:35.827Z,2.40
2019-01-03T07:33:17.632Z,3.23
2019-01-03T07:49:46.658Z,3.33
2019-01-03T07:55:28.415Z,3.20
2019-01-03T08:00:50.699Z,3.90
2019-01-03T08:06:32.489Z,4.10
2019-01-03T08:12:14.286Z,3.27
2019-01-03T08:17:56.084Z,2.50
2019-01-03T08:23:37.883Z,2.50
2019-01-03T08:29:19.662Z,3.53
2019-01-03T08:34:41.946Z,3.40
2019-01-03T08:40:18.792Z,3.27
2019-01-03T08:46:00.575Z,2.93
2019-01-03T08:51:35.473Z,2.90
2019-01-03T08:57:20.050Z,2.53
2019-01-03T09:03:01.890Z,3.27
2019-01-03T09:08:43.710Z,2.20
2019-01-03T09:14:25.491Z,2.20
2019-01-03T09:25:35.457Z,1.97
2019-01-03T09:31:17.229Z,1.90
2019-01-03T09:36:59.011Z,2.70
2019-01-03T09:42:40.819Z,2.10
2019-01-03T09:48:03.071Z,1.50
2019-01-03T09:53:05.758Z,2.03
2019-01-03T09:58:08.535Z,2.93
2019-01-03T10:03:11.222Z,2.07
2019-01-03T10:08:19.517Z,1.90
2019-01-03T10:13:37.978Z,1.90
2019-01-03T10:19:00.168Z,1.67
2019-01-03T10:24:22.368Z,2.00
2019-01-03T10:29:44.542Z,1.37
2019-01-03T10:34:47.219Z,1.77
2019-01-03T10:40:09.378Z,1.73
2019-01-03T10:45:32.697Z,2.13
2019-01-03T10:50:47.532Z,1.50
2019-01-03T10:56:09.700Z,1.50
2019-01-03T11:01:31.875Z,2.10
2019-01-03T11:06:54.066Z,1.50
2019-01-03T11:12:16.243Z,1.93
2019-01-03T11:17:38.422Z,1.63
2019-01-03T11:23:00.607Z,1.80
2019-01-03T11:28:22.780Z,2.20
2019-01-03T11:33:45.159Z,1.53
2019-01-03T11:39:07.822Z,1.70
2019-01-03T11:44:30.298Z,1.67
2019-01-03T11:49:46.464Z,1.73
2019-01-03T11:54:49.358Z,1.67
2019-01-03T12:00:11.819Z,1.60
2019-01-03T12:05:33.994Z,1.53
2019-01-03T12:10:56.380Z,1.67
2019-01-03T12:16:18.866Z,1.43
2019-01-03T12:21:21.842Z,1.40
2019-01-03T12:26:24.528Z,1.47
2019-01-03T12:31:46.978Z,2.23
2019-01-03T12:37:09.189Z,1.40
2019-01-03T12:42:31.352Z,1.57
2019-01-03T12:47:53.532Z,2.20
2019-01-03T12:53:10.440Z,2.10
2019-01-03T12:58:13.089Z,2.70
2019-01-03T13:03:35.262Z,2.80
2019-01-03T13:08:57.442Z,2.50
2019-01-03T13:19:49.906Z,2.50
2019-01-03T13:25:12.112Z,2.20
2019-01-03T13:30:34.353Z,2.47
2019-01-03T13:35:37.034Z,2.30
2019-01-03T13:40:39.710Z,2.27
2019-01-03T13:45:42.504Z,2.30
2019-01-03T13:50:51.212Z,2.40
2019-01-03T13:55:53.908Z,2.90
2019-01-03T14:01:16.109Z,2.20
2019-01-03T14:06:38.319Z,3.40
2019-01-03T14:12:00.623Z,2.70
2019-01-03T14:17:22.797Z,2.90
2019-01-03T14:22:44.976Z,2.70
2019-01-03T14:27:47.743Z,2.77
2019-01-03T14:33:09.904Z,3.60
2019-01-03T14:49:32.066Z,4.67
2019-01-03T14:54:34.750Z,3.20
2019-01-03T14:59:38.517Z,4.87
2019-01-03T15:05:00.720Z,3.43
2019-01-03T15:10:22.962Z,2.87
2019-01-03T15:15:45.135Z,3.00
2019-01-03T15:20:47.884Z,3.37
2019-01-03T15:26:10.084Z,3.70
2019-01-03T15:31:32.272Z,3.33
2019-01-03T15:36:54.446Z,2.97
2019-01-03T15:42:16.608Z,3.60
2019-01-03T15:47:19.288Z,3.50
2019-01-03T15:52:35.042Z,2.90
2019-01-03T15:57:37.733Z,4.07
2019-01-03T16:02:40.501Z,6.50
2019-01-03T16:07:43.166Z,5.47
2019-01-03T16:12:45.828Z,3.93
2019-01-03T16:18:08.011Z,3.40
2019-01-03T16:23:10.669Z,3.87
2019-01-03T16:28:13.428Z,3.90
2019-01-03T16:33:16.101Z,4.10
2019-01-03T16:38:18.781Z,2.73
2019-01-03T16:43:41.001Z,2.93
2019-01-03T16:48:56.034Z,2.80
2019-01-03T16:54:18.236Z,2.60
2019-01-03T16:59:40.551Z,5.10
2019-01-03T17:05:02.832Z,3.50
2019-01-03T17:10:25.024Z,2.30
2019-01-03T17:15:47.206Z,2.00
2019-01-03T17:21:09.401Z,1.87
2019-01-03T17:26:12.155Z,2.13
2019-01-03T17:31:34.328Z,2.50
2019-01-03T17:36:56.508Z,5.20
2019-01-03T17:42:18.688Z,4.67
2019-01-03T17:47:40.932Z,3.03
2019-01-03T17:52:56.353Z,2.57
2019-01-03T17:57:59.032Z,1.83
2019-01-03T18:03:21.775Z,2.70
2019-01-03T18:08:47.142Z,3.00
2019-01-03T18:14:09.336Z,2.37
2019-01-03T18:19:12.047Z,3.00
2019-01-03T18:24:14.732Z,2.30
2019-01-03T18:29:17.409Z,2.20
2019-01-03T18:34:20.138Z,2.80
2019-01-03T18:39:42.335Z,2.40
2019-01-03T18:45:06.638Z,2.17
2019-01-03T18:50:22.089Z,1.77
2019-01-03T18:55:44.320Z,2.27
2019-01-03T19:01:06.513Z,2.17
2019-01-03T19:06:28.688Z,2.17
2019-01-03T19:11:50.871Z,2.63
2019-01-03T19:17:13.128Z,2.20
2019-01-03T19:22:15.979Z,2.40
2019-01-03T19:27:38.238Z,2.47
2019-01-03T19:32:41.455Z,1.67
2019-01-03T19:37:45.509Z,1.67
2019-01-03T19:42:48.202Z,2.03
2019-01-03T19:48:10.402Z,1.83
2019-01-03T19:53:26.728Z,1.90
2019-01-03T19:58:29.418Z,4.03
2019-01-03T20:03:32.100Z,2.33
2019-01-03T20:08:35.268Z,2.50
2019-01-03T20:13:38.002Z,2.10
2019-01-03T20:18:40.675Z,2.37
2019-01-03T20:23:43.373Z,1.73
2019-01-03T20:29:05.576Z,2.10
2019-01-03T20:34:27.755Z,2.50
2019-01-03T20:39:49.963Z,6.50
2019-01-03T20:45:12.280Z,3.53
2019-01-03T20:50:27.574Z,2.20
2019-01-03T20:55:49.815Z,2.53
2019-01-03T21:01:12.015Z,2.20
2019-01-03T21:06:34.195Z,2.83
2019-01-03T21:11:56.373Z,2.20
2019-01-03T21:16:59.073Z,3.30
2019-01-03T21:22:21.246Z,3.10
2019-01-03T21:27:43.431Z,3.20
2019-01-03T21:32:46.107Z,3.20
2019-01-03T21:37:48.785Z,3.60
2019-01-03T21:43:10.961Z,3.43
2019-01-03T21:48:33.169Z,2.87
2019-01-03T21:53:55.351Z,3.57
2019-01-03T21:58:58.037Z,3.30
2019-01-03T22:04:00.708Z,4.30
2019-01-03T22:09:22.893Z,4.47
2019-01-03T22:14:25.575Z,4.20
2019-01-03T22:19:47.761Z,4.10
2019-01-03T22:24:50.427Z,4.40
2019-01-03T22:29:53.094Z,4.17
2019-01-03T22:35:15.263Z,4.13
2019-01-03T22:40:37.434Z,4.77
2019-01-03T22:45:40.106Z,6.17
2019-01-03T22:50:55.112Z,4.90
2019-01-03T22:55:57.792Z,4.50
2019-01-03T23:01:20.066Z,4.47
2019-01-03T23:06:42.287Z,4.67
2019-01-03T23:11:44.978Z,5.33
2019-01-03T23:17:07.212Z,5.70
2019-01-03T23:22:09.961Z,5.47
2019-01-03T23:27:32.141Z,4.40
2019-01-03T23:32:34.812Z,5.20
2019-01-03T23:37:37.483Z,4.47
2019-01-03T23:48:13.035Z,5.57
2019-01-03T23:53:28.585Z,5.40
2019-01-03T23:58:31.273Z,5.83
